NCAR-RAP Real-Time Weather Data

Output produced by METARs form (06 December 2016  08:09 UTC)
found at http://weather.rap.ucar.edu/surface/
 
Conditions at: KALB observed 06 December 2016  07:51 UTC
Temperature: 3.3°C (38°F)
Dewpoint: -0.6°C (31°F) [RH = 76%]
Pressure (altimeter): 30.10 inches Hg (1019.4 mb)
[Sea-level pressure: 1019.6 mb]
Winds: from the W (280 degrees) at 9 MPH (8 knots; 4.2 m/s)
Visibility: 10 or more miles (16+ km)
Ceiling: 5500 feet AGL
Clouds: few clouds at 3500 feet AGL
overcast cloud deck at 5500 feet AGL
Present Weather: no significant weather observed at this time
KALB 060751Z 28008KT 10SM FEW035 OVC055 03/M01 A3010 RMK AO2 SLP196 T00331006

Conditions at: KALB observed 06 December 2016  06:51 UTC
Temperature: 3.9°C (39°F)
Dewpoint: -0.6°C (31°F) [RH = 72%]
Pressure (altimeter): 30.10 inches Hg (1019.4 mb)
[Sea-level pressure: 1019.4 mb]
Winds: from the WNW (290 degrees) at 13 MPH (11 knots; 5.7 m/s)
Visibility: 10 or more miles (16+ km)
Ceiling: 3700 feet AGL
Clouds: broken clouds at 3700 feet AGL
Present Weather: no significant weather observed at this time
KALB 060651Z 29011KT 10SM BKN037 04/M01 A3010 RMK AO2 SLP194 T00391006

Conditions at: KALB observed 06 December 2016  05:51 UTC
Temperature: 2.8°C (37°F)
Dewpoint: -1.1°C (30°F) [RH = 75%]
Pressure (altimeter): 30.07 inches Hg (1018.4 mb)
[Sea-level pressure: 1018.6 mb]
Winds: from the W (270 degrees) at 9 MPH (8 knots; 4.2 m/s)
Visibility: 10 or more miles (16+ km)
Ceiling: at least 12,000 feet AGL
Clouds: few clouds at 3400 feet AGL
scattered clouds at 6000 feet AGL
Present Weather: no significant weather observed at this time
KALB 060551Z 27008KT 10SM FEW034 SCT060 03/M01 A3007 RMK AO2 SLP186 60000 T00281011 10039 20022 51011

Conditions at: KALB observed 06 December 2016  04:51 UTC
Temperature: 3.9°C (39°F)
Dewpoint: 0.0°C (32°F) [RH = 76%]
Pressure (altimeter): 30.07 inches Hg (1018.4 mb)
[Sea-level pressure: 1018.3 mb]
Winds: from the WNW (290 degrees) at 8 MPH (7 knots; 3.6 m/s)
Visibility: 10 or more miles (16+ km)
Ceiling: 3400 feet AGL
Clouds: broken clouds at 3400 feet AGL
broken clouds at 4600 feet AGL
overcast cloud deck at 6000 feet AGL
Present Weather: no significant weather observed at this time
KALB 060451Z 29007KT 10SM BKN034 BKN046 OVC060 04/00 A3007 RMK AO2 SLP183 T00390000 400561033

Conditions at: KALB observed 06 December 2016  03:51 UTC
Temperature: 2.8°C (37°F)
Dewpoint: -0.6°C (31°F) [RH = 78%]
Pressure (altimeter): 30.05 inches Hg (1017.7 mb)
[Sea-level pressure: 1017.9 mb]
Winds: from the W (280 degrees) at 6 MPH (5 knots; 2.6 m/s)
Visibility: 10 or more miles (16+ km)
Ceiling: 7000 feet AGL
Clouds: scattered clouds at 4400 feet AGL
scattered clouds at 5000 feet AGL
broken clouds at 7000 feet AGL
Present Weather: no significant weather observed at this time
KALB 060351Z 28005KT 10SM SCT044 SCT050 BKN070 03/M01 A3005 RMK AO2 SLP179 T00281006

Conditions at: KALB observed 06 December 2016  02:51 UTC
Temperature: 3.3°C (38°F)
Dewpoint: -0.6°C (31°F) [RH = 76%]
Pressure (altimeter): 30.04 inches Hg (1017.4 mb)
[Sea-level pressure: 1017.6 mb]
Winds: from the W (260 degrees) at 7 MPH (6 knots; 3.1 m/s)
Visibility: 10 or more miles (16+ km)
Ceiling: 6500 feet AGL
Clouds: few clouds at 3500 feet AGL
broken clouds at 6500 feet AGL
Present Weather: no significant weather observed at this time
KALB 060251Z 26006KT 10SM FEW035 BKN065 03/M01 A3004 RMK AO2 SLP176 BKN V SCT 60000 T00331006 53014

Conditions at: KALB observed 06 December 2016  01:51 UTC
Temperature: 3.9°C (39°F)
Dewpoint: -0.6°C (31°F) [RH = 72%]
Pressure (altimeter): 30.03 inches Hg (1017.0 mb)
[Sea-level pressure: 1017.2 mb]
Winds: from the W (280 degrees) at 7 MPH (6 knots; 3.1 m/s)
Visibility: 10 or more miles (16+ km)
Ceiling: 6000 feet AGL
Clouds: few clouds at 3000 feet AGL
few clouds at 4100 feet AGL
overcast cloud deck at 6000 feet AGL
Present Weather: no significant weather observed at this time
KALB 060151Z 28006KT 10SM FEW030 FEW041 OVC060 04/M01 A3003 RMK AO2 SLP172 OCNL BINOVC T00391006

Conditions at: KALB observed 06 December 2016  00:51 UTC
Temperature: 3.3°C (38°F)
Dewpoint: -0.6°C (31°F) [RH = 76%]
Pressure (altimeter): 30.01 inches Hg (1016.3 mb)
[Sea-level pressure: 1016.5 mb]
Winds: from the W (270 degrees) at 7 MPH (6 knots; 3.1 m/s)
Visibility: 10 or more miles (16+ km)
Ceiling: 6000 feet AGL
Clouds: few clouds at 3000 feet AGL
few clouds at 3800 feet AGL
broken clouds at 6000 feet AGL
Present Weather: no significant weather observed at this time
KALB 060051Z 27006KT 10SM FEW030 FEW038 BKN060 03/M01 A3001 RMK AO2 RAE00 SLP165 P0000 T00331006

Conditions at: KALB observed 05 December 2016  23:51 UTC
Temperature: 3.9°C (39°F)
Dewpoint: -0.6°C (31°F) [RH = 72%]
Pressure (altimeter): 30.00 inches Hg (1016.0 mb)
[Sea-level pressure: 1016.2 mb]
Winds: from the WNW (290 degrees) at 12 MPH (10 knots; 5.2 m/s)
Visibility: 10 or more miles (16+ km)
Ceiling: 3800 feet AGL
Clouds: scattered clouds at 3000 feet AGL
broken clouds at 3800 feet AGL
overcast cloud deck at 6500 feet AGL
Present Weather: -RA  (light rain)
KALB 052351Z 29010KT 10SM -RA SCT030 BKN038 OVC065 04/M01 A3000 RMK AO2 DZE15RAB48 SLP162 SCT V BKN BINOVC P0000 60000 T00391006 10056 20033 51016

Conditions at: KALB observed 05 December 2016  22:51 UTC
Temperature: 4.4°C (40°F)
Dewpoint: -1.1°C (30°F) [RH = 67%]
Pressure (altimeter): 29.99 inches Hg (1015.7 mb)
[Sea-level pressure: 1015.9 mb]
Winds: from the WNW (290 degrees) at 7 MPH (6 knots; 3.1 m/s)
Visibility: 10 or more miles (16+ km)
Ceiling: 3200 feet AGL
Clouds: broken clouds at 3200 feet AGL
overcast cloud deck at 4000 feet AGL
Present Weather: -DZ  (light drizzle)
KALB 052251Z 29006KT 10SM -DZ BKN032 OVC040 04/M01 A2999 RMK AO2 DZB50 SLP159 PCPN VRY LGT P0000 T00441011

Conditions at: KALB observed 05 December 2016  21:51 UTC
Temperature: 5.0°C (41°F)
Dewpoint: -1.1°C (30°F) [RH = 65%]
Pressure (altimeter): 29.98 inches Hg (1015.3 mb)
[Sea-level pressure: 1015.6 mb]
Winds: from the WNW (300 degrees) at 13 MPH (11 knots; 5.7 m/s)
Visibility: 10 or more miles (16+ km)
Ceiling: 3500 feet AGL
Clouds: broken clouds at 3500 feet AGL
Present Weather: no significant weather observed at this time
KALB 052151Z 30011KT 10SM BKN035 05/M01 A2998 RMK AO2 SLP156 BKN V OVC T00501011

Conditions at: KALB observed 05 December 2016  20:51 UTC
Temperature: 5.0°C (41°F)
Dewpoint: -1.1°C (30°F) [RH = 65%]
Pressure (altimeter): 29.95 inches Hg (1014.3 mb)
[Sea-level pressure: 1014.6 mb]
Winds: from the W (280 degrees) at 8 MPH (7 knots; 3.6 m/s)
Visibility: 10 or more miles (16+ km)
Ceiling: 3300 feet AGL
Clouds: broken clouds at 3300 feet AGL
broken clouds at 4000 feet AGL
Present Weather: no significant weather observed at this time
KALB 052051Z 28007KT 10SM BKN033 BKN040 05/M01 A2995 RMK AO2 SLP146 T00501011 53014